createdAt,value
2023-03-05T00:01:40.499Z,17.90
2023-03-05T00:04:13.092Z,18.55
2023-03-05T00:06:41.006Z,17.90
2023-03-05T00:09:08.859Z,16.27
2023-03-05T00:11:36.789Z,17.30
2023-03-05T00:14:06.249Z,16.63
2023-03-05T00:16:35.659Z,18.92
2023-03-05T00:19:03.512Z,16.88
2023-03-05T00:21:46.495Z,17.17
2023-03-05T00:24:17.230Z,15.45
2023-03-05T00:26:46.738Z,15.52
2023-03-05T00:29:18.607Z,16.33
2023-03-05T00:31:48.050Z,16.45
2023-03-05T00:34:17.192Z,18.50
2023-03-05T00:36:46.952Z,17.48
2023-03-05T00:39:15.983Z,15.73
2023-03-05T00:41:44.607Z,16.88
2023-03-05T00:44:12.952Z,17.30
2023-03-05T00:46:41.315Z,16.92
2023-03-05T00:49:10.736Z,16.92
2023-03-05T00:51:38.803Z,17.20
2023-03-05T00:54:07.197Z,16.30
2023-03-05T00:56:35.064Z,17.55
2023-03-05T00:59:02.866Z,16.65
2023-03-05T01:01:30.838Z,17.50
2023-03-05T01:03:59.986Z,15.60
2023-03-05T01:06:29.490Z,16.13
2023-03-05T01:08:57.722Z,16.70
2023-03-05T01:11:26.925Z,17.73
2023-03-05T01:13:54.722Z,15.77
2023-03-05T01:16:22.932Z,15.68
2023-03-05T01:18:50.688Z,17.90
2023-03-05T01:21:18.544Z,15.77
2023-03-05T01:23:47.819Z,16.55
2023-03-05T01:26:15.643Z,17.25
2023-03-05T01:28:43.755Z,16.05
2023-03-05T01:31:12.722Z,16.02
2023-03-05T01:33:41.030Z,14.60
2023-03-05T01:36:12.610Z,16.08
2023-03-05T01:38:40.648Z,15.23
2023-03-05T01:41:10.598Z,14.07
2023-03-05T01:43:38.949Z,15.07
2023-03-05T01:46:36.919Z,15.88
2023-03-05T01:49:09.972Z,14.25
2023-03-05T01:51:42.176Z,15.95
2023-03-05T01:54:12.833Z,14.73
2023-03-05T01:56:44.061Z,15.23
2023-03-05T01:59:13.510Z,14.88
2023-03-05T02:01:45.625Z,15.25
2023-03-05T02:04:17.651Z,13.82
2023-03-05T02:06:46.780Z,16.88
2023-03-05T02:09:14.894Z,14.02
2023-03-05T02:11:44.976Z,15.57
2023-03-05T02:14:13.054Z,14.30
2023-03-05T02:16:41.119Z,15.68
2023-03-05T02:19:11.777Z,13.18
2023-03-05T02:21:42.905Z,15.88
2023-03-05T02:24:13.956Z,14.85
2023-03-05T02:26:43.253Z,15.00
2023-03-05T02:29:14.026Z,14.95
2023-03-05T02:31:41.997Z,15.43
2023-03-05T02:34:09.918Z,14.77
2023-03-05T02:36:37.876Z,17.15
2023-03-05T02:39:07.199Z,15.40
2023-03-05T02:41:34.966Z,15.38
2023-03-05T02:44:03.285Z,15.73
2023-03-05T02:46:31.304Z,13.65
2023-03-05T02:49:00.519Z,14.50
2023-03-05T02:51:28.419Z,13.65
2023-03-05T02:53:56.212Z,13.07
2023-03-05T02:56:25.326Z,12.30
2023-03-05T02:58:53.205Z,12.13
2023-03-05T03:01:21.110Z,13.73
2023-03-05T03:03:49.844Z,15.02
2023-03-05T03:06:17.669Z,12.63
2023-03-05T03:08:45.629Z,10.75
2023-03-05T03:11:14.186Z,11.75
2023-03-05T03:13:43.483Z,12.45
2023-03-05T03:16:13.044Z,10.40
2023-03-05T03:18:41.064Z,11.27
2023-03-05T03:21:09.301Z,11.70
2023-03-05T03:23:37.252Z,13.20
2023-03-05T03:26:05.274Z,11.23
2023-03-05T03:28:33.245Z,11.18
2023-03-05T03:31:02.687Z,12.05
2023-03-05T03:33:30.819Z,10.75
2023-03-05T03:35:58.703Z,12.00
2023-03-05T03:38:26.566Z,11.98
2023-03-05T03:40:54.513Z,10.30
2023-03-05T03:43:22.400Z,11.45
2023-03-05T03:45:50.389Z,12.57
2023-03-05T03:48:19.571Z,11.93
2023-03-05T03:50:47.457Z,10.55
2023-03-05T03:53:17.452Z,12.10
2023-03-05T03:55:46.597Z,10.95
2023-03-05T03:58:14.925Z,9.90
2023-03-05T04:00:43.080Z,11.07
2023-03-05T04:03:10.952Z,12.35
2023-03-05T04:05:40.375Z,10.13
2023-03-05T04:08:12.053Z,9.55
2023-03-05T04:10:40.301Z,9.80
2023-03-05T04:13:08.874Z,10.38
2023-03-05T04:15:36.743Z,10.60
2023-03-05T04:18:04.745Z,9.25
2023-03-05T04:20:32.793Z,9.95
2023-03-05T04:23:02.014Z,10.38
2023-03-05T04:25:29.847Z,10.95
2023-03-05T04:27:57.624Z,11.45
2023-03-05T04:30:25.469Z,13.80
2023-03-05T04:32:53.375Z,11.45
2023-03-05T04:35:21.564Z,10.75
2023-03-05T04:37:49.675Z,12.18
2023-03-05T04:40:19.608Z,12.00
2023-03-05T04:42:47.882Z,10.07
2023-03-05T04:45:17.200Z,10.75
2023-03-05T04:47:44.948Z,10.60
2023-03-05T04:50:13.976Z,11.57
2023-03-05T04:52:47.129Z,10.63
2023-03-05T04:55:18.234Z,11.05
2023-03-05T04:57:46.346Z,11.38
2023-03-05T05:00:16.768Z,12.05
2023-03-05T05:02:46.180Z,11.40
2023-03-05T05:05:17.113Z,10.50
2023-03-05T05:07:45.118Z,10.57
2023-03-05T05:10:14.831Z,11.57
2023-03-05T05:12:44.104Z,11.10
2023-03-05T05:15:13.298Z,12.60
2023-03-05T05:17:41.259Z,11.55
2023-03-05T05:20:12.007Z,12.52
2023-03-05T05:22:39.831Z,11.48
2023-03-05T05:25:08.430Z,10.95
2023-03-05T05:27:36.429Z,10.82
2023-03-05T05:30:06.948Z,11.20
2023-03-05T05:32:34.858Z,10.27
2023-03-05T05:35:03.899Z,11.02
2023-03-05T05:37:32.016Z,10.60
2023-03-05T05:40:00.142Z,11.45
2023-03-05T05:42:29.473Z,13.27
2023-03-05T05:44:57.378Z,10.65
2023-03-05T05:47:26.974Z,11.90
2023-03-05T05:49:54.973Z,12.55
2023-03-05T05:52:23.288Z,13.40
2023-03-05T05:54:51.132Z,13.35
2023-03-05T05:57:19.067Z,12.55
2023-03-05T05:59:46.877Z,12.90
2023-03-05T06:02:14.741Z,11.30
2023-03-05T06:04:43.927Z,13.80
2023-03-05T06:07:11.679Z,14.43
2023-03-05T06:09:39.382Z,13.93
2023-03-05T06:12:08.495Z,13.25
2023-03-05T06:14:36.506Z,15.25
2023-03-05T06:17:04.390Z,13.05
2023-03-05T06:19:33.665Z,13.80
2023-03-05T06:22:02.799Z,12.25
2023-03-05T06:24:30.645Z,17.02
2023-03-05T06:26:58.468Z,14.00
2023-03-05T06:29:26.321Z,15.50
2023-03-05T06:31:54.172Z,12.70
2023-03-05T06:34:22.198Z,12.55
2023-03-05T06:36:50.504Z,14.25
2023-03-05T06:39:20.216Z,14.23
2023-03-05T06:41:51.605Z,12.95
2023-03-05T06:44:19.862Z,13.35
2023-03-05T06:46:47.867Z,14.25
2023-03-05T06:49:15.832Z,14.00
2023-03-05T06:51:43.772Z,14.10
2023-03-05T06:54:13.581Z,13.68
2023-03-05T06:56:45.455Z,15.20
2023-03-05T06:59:14.498Z,13.10
2023-03-05T07:01:42.471Z,14.00
2023-03-05T07:04:10.988Z,14.02
2023-03-05T07:06:39.747Z,13.60
2023-03-05T07:09:08.560Z,13.95
2023-03-05T07:11:37.004Z,15.65
2023-03-05T07:14:06.426Z,15.85
2023-03-05T07:16:35.739Z,14.50
2023-03-05T07:19:06.517Z,14.20
2023-03-05T07:21:39.131Z,14.50
2023-03-05T07:24:09.605Z,13.38
2023-03-05T07:26:37.456Z,14.05
2023-03-05T07:29:06.853Z,13.40
2023-03-05T07:31:34.777Z,13.30
2023-03-05T07:34:04.326Z,13.00
2023-03-05T07:36:35.254Z,12.43
2023-03-05T07:39:07.080Z,13.15
2023-03-05T07:41:35.993Z,13.02
2023-03-05T07:44:04.909Z,14.13
2023-03-05T07:46:35.220Z,13.45
2023-03-05T07:49:03.111Z,14.00
2023-03-05T07:51:31.565Z,12.70
2023-03-05T07:54:00.081Z,12.70
2023-03-05T07:56:32.114Z,13.20
2023-03-05T07:59:02.823Z,13.13
2023-03-05T08:01:31.538Z,12.23
2023-03-05T08:04:04.324Z,12.05
2023-03-05T08:06:32.576Z,12.10
2023-03-05T08:09:00.698Z,13.35
2023-03-05T08:11:29.958Z,13.95
2023-03-05T08:13:59.322Z,12.10
2023-03-05T08:16:27.439Z,13.25
2023-03-05T08:18:57.439Z,12.48
2023-03-05T08:21:29.397Z,13.15
2023-03-05T08:23:57.541Z,12.85
2023-03-05T08:26:30.525Z,12.50
2023-03-05T08:28:58.944Z,11.48
2023-03-05T08:31:32.099Z,13.25
2023-03-05T08:34:02.047Z,13.27
2023-03-05T08:36:31.452Z,13.27
2023-03-05T08:39:00.042Z,12.52
2023-03-05T08:41:28.187Z,11.90
2023-03-05T08:43:56.015Z,12.60
2023-03-05T08:46:24.458Z,11.82
2023-03-05T08:48:52.470Z,13.13
2023-03-05T08:51:23.575Z,12.88
2023-03-05T08:53:53.904Z,11.80
2023-03-05T08:56:22.310Z,11.65
2023-03-05T08:58:54.854Z,11.88
2023-03-05T09:01:24.024Z,11.93
2023-03-05T09:03:51.913Z,12.35
2023-03-05T09:06:19.863Z,11.95
2023-03-05T09:08:47.852Z,14.48
2023-03-05T09:11:17.164Z,11.68
2023-03-05T09:13:45.255Z,13.73
2023-03-05T09:16:15.441Z,13.77
2023-03-05T09:18:44.327Z,12.02
2023-03-05T09:21:14.810Z,11.30
2023-03-05T09:23:43.396Z,12.95
2023-03-05T09:26:13.438Z,13.38
2023-03-05T09:28:43.298Z,13.25
2023-03-05T09:31:11.500Z,12.95
2023-03-05T09:33:40.085Z,12.90
2023-03-05T09:36:18.979Z,13.30
2023-03-05T09:38:47.610Z,12.93
2023-03-05T09:41:24.756Z,12.65
2023-03-05T09:44:20.555Z,13.20
2023-03-05T09:46:55.082Z,12.63
2023-03-05T09:49:33.380Z,12.95
2023-03-05T09:52:08.393Z,13.20
2023-03-05T09:54:40.914Z,13.38
2023-03-05T09:57:17.392Z,13.80
2023-03-05T09:59:51.209Z,13.75
2023-03-05T10:02:24.371Z,13.43
2023-03-05T10:04:56.252Z,12.93
2023-03-05T10:07:28.120Z,16.17
2023-03-05T10:09:59.363Z,14.38
2023-03-05T10:12:34.463Z,13.73
2023-03-05T10:15:03.943Z,13.75
2023-03-05T10:18:00.175Z,13.70
2023-03-05T10:20:50.406Z,14.30
2023-03-05T10:23:32.816Z,14.50
2023-03-05T10:26:27.735Z,14.70
2023-03-05T10:29:07.961Z,14.00
2023-03-05T10:31:56.972Z,14.57
2023-03-05T10:34:57.045Z,15.43
2023-03-05T10:37:58.406Z,14.43
2023-03-05T10:40:33.482Z,13.50
2023-03-05T10:43:09.058Z,14.40
2023-03-05T10:45:41.527Z,14.45
2023-03-05T10:48:16.167Z,14.43
2023-03-05T10:50:49.312Z,13.80
2023-03-05T10:53:25.692Z,13.32
2023-03-05T10:55:56.351Z,13.02
2023-03-05T10:58:26.665Z,13.60
2023-03-05T11:01:04.309Z,12.02
2023-03-05T11:03:49.194Z,12.55
2023-03-05T11:06:27.323Z,13.63
2023-03-05T11:08:55.428Z,12.15
2023-03-05T11:11:25.181Z,12.90
2023-03-05T11:13:56.502Z,13.25
2023-03-05T11:16:26.980Z,13.10
2023-03-05T11:19:18.826Z,12.30
2023-03-05T11:21:47.847Z,12.35
2023-03-05T11:24:18.368Z,13.50
2023-03-05T11:26:51.619Z,14.43
2023-03-05T11:29:23.835Z,14.40
2023-03-05T11:31:52.703Z,14.32
2023-03-05T11:34:35.172Z,13.93
2023-03-05T11:37:06.473Z,14.35
2023-03-05T11:39:38.359Z,14.40
2023-03-05T11:42:12.451Z,13.60
2023-03-05T11:44:47.949Z,15.48
2023-03-05T11:47:27.699Z,14.20
2023-03-05T11:50:03.452Z,13.65
2023-03-05T11:52:35.944Z,13.50
2023-03-05T11:55:08.332Z,14.45
2023-03-05T11:57:44.752Z,14.45
2023-03-05T12:00:17.322Z,13.90
2023-03-05T12:02:47.031Z,14.60
2023-03-05T12:05:17.982Z,15.85
2023-03-05T12:07:49.888Z,14.18
2023-03-05T12:10:20.854Z,15.07
2023-03-05T12:12:56.905Z,15.55
2023-03-05T12:15:46.653Z,14.60
2023-03-05T12:18:27.775Z,13.63
2023-03-05T12:21:06.449Z,14.15
2023-03-05T12:23:46.589Z,14.18
2023-03-05T12:26:14.371Z,12.43
2023-03-05T12:28:57.324Z,11.95
2023-03-05T12:31:45.582Z,12.15
2023-03-05T12:34:37.951Z,11.95
2023-03-05T12:37:11.924Z,10.80
2023-03-05T12:40:04.632Z,11.07
2023-03-05T12:42:57.868Z,11.25
2023-03-05T12:45:32.423Z,11.70
2023-03-05T12:48:37.634Z,13.82
2023-03-05T12:51:05.695Z,12.52
2023-03-05T12:53:34.994Z,11.98
2023-03-05T12:56:12.699Z,12.23
2023-03-05T12:58:44.206Z,12.20
2023-03-05T13:01:30.504Z,12.18
2023-03-05T13:04:01.001Z,12.00
2023-03-05T13:06:31.023Z,12.85
2023-03-05T13:09:02.093Z,12.00
2023-03-05T13:11:32.298Z,12.43
2023-03-05T13:14:00.408Z,11.48
2023-03-05T13:16:30.613Z,11.88
2023-03-05T13:19:02.644Z,12.23
2023-03-05T13:21:31.970Z,13.10
2023-03-05T13:24:03.823Z,13.15
2023-03-05T13:26:39.546Z,12.88
2023-03-05T13:29:11.767Z,11.60
2023-03-05T13:31:43.428Z,10.65
2023-03-05T13:34:18.878Z,10.68
2023-03-05T13:36:49.538Z,10.85
2023-03-05T13:39:22.891Z,12.38
2023-03-05T13:42:03.373Z,11.23
2023-03-05T13:44:32.021Z,11.43
2023-03-05T13:47:16.832Z,11.10
2023-03-05T13:49:45.548Z,11.27
2023-03-05T13:52:15.873Z,12.10
2023-03-05T13:54:45.895Z,9.88
2023-03-05T13:57:34.277Z,10.80
2023-03-05T14:00:02.079Z,10.25
2023-03-05T14:02:33.137Z,11.80
2023-03-05T14:05:01.470Z,10.98
2023-03-05T14:07:33.842Z,10.60
2023-03-05T14:10:03.821Z,10.35
2023-03-05T14:12:37.784Z,10.48
2023-03-05T14:15:20.392Z,10.35
2023-03-05T14:17:49.232Z,10.95
2023-03-05T14:20:24.535Z,9.85
2023-03-05T14:22:54.747Z,12.80
2023-03-05T14:25:41.938Z,10.75
2023-03-05T14:28:28.645Z,11.60
2023-03-05T14:30:58.335Z,10.65
2023-03-05T14:33:30.422Z,11.77
2023-03-05T14:35:59.486Z,11.02
2023-03-05T14:38:29.971Z,11.70
2023-03-05T14:40:59.053Z,10.55
2023-03-05T14:43:27.046Z,12.85
2023-03-05T14:45:54.824Z,11.07
2023-03-05T14:48:22.600Z,10.48
2023-03-05T14:50:56.352Z,10.95
2023-03-05T14:53:29.366Z,10.45
2023-03-05T14:55:58.918Z,10.70
2023-03-05T14:58:33.712Z,12.07
2023-03-05T15:01:01.660Z,11.45
2023-03-05T15:03:29.836Z,11.85
2023-03-05T15:05:59.283Z,11.00
2023-03-05T15:08:28.907Z,11.80
2023-03-05T15:10:59.312Z,12.93
2023-03-05T15:13:28.219Z,10.80
2023-03-05T15:15:56.597Z,11.35
2023-03-05T15:18:24.935Z,12.30
2023-03-05T15:20:53.623Z,12.77
2023-03-05T15:23:21.879Z,14.48
2023-03-05T15:25:49.860Z,13.68
2023-03-05T15:28:19.069Z,14.15
2023-03-05T15:30:48.598Z,14.10
2023-03-05T15:33:17.827Z,14.20
2023-03-05T15:35:45.880Z,14.68
2023-03-05T15:38:13.794Z,12.85
2023-03-05T15:40:41.534Z,13.13
2023-03-05T15:43:10.273Z,14.00
2023-03-05T15:45:39.673Z,13.02
2023-03-05T15:48:08.292Z,13.10
2023-03-05T15:50:36.135Z,12.50
2023-03-05T15:53:03.940Z,13.48
2023-03-05T15:55:31.681Z,11.70
2023-03-05T15:57:59.564Z,11.82
2023-03-05T16:00:31.430Z,13.25
2023-03-05T16:03:00.469Z,12.57
2023-03-05T16:05:28.210Z,12.68
2023-03-05T16:07:57.152Z,13.25
2023-03-05T16:10:27.932Z,14.93
2023-03-05T16:13:02.129Z,12.75
2023-03-05T16:15:31.841Z,12.90
2023-03-05T16:18:05.839Z,12.32
2023-03-05T16:20:36.622Z,12.80
2023-03-05T16:23:05.402Z,12.48
2023-03-05T16:25:33.672Z,12.30
2023-03-05T16:28:01.952Z,8.85
2023-03-05T16:30:29.933Z,9.45
2023-03-05T16:32:57.740Z,9.48
2023-03-05T16:35:28.561Z,9.40
2023-03-05T16:37:56.500Z,10.20
2023-03-05T16:40:25.850Z,9.63
2023-03-05T16:42:53.622Z,9.70
2023-03-05T16:45:21.464Z,10.18
2023-03-05T16:47:49.867Z,9.15
2023-03-05T16:50:18.596Z,10.18
2023-03-05T16:52:47.989Z,8.38
2023-03-05T16:55:15.893Z,8.75
2023-03-05T16:57:44.074Z,10.30
2023-03-05T17:00:13.163Z,10.32
2023-03-05T17:02:41.405Z,8.40
2023-03-05T17:05:10.073Z,8.80
2023-03-05T17:07:37.860Z,8.90
2023-03-05T17:10:08.495Z,8.82
2023-03-05T17:12:36.275Z,9.20
2023-03-05T17:15:04.271Z,8.68
2023-03-05T17:17:32.570Z,9.15
2023-03-05T17:20:00.590Z,8.38
2023-03-05T17:22:29.060Z,9.05
2023-03-05T17:24:57.329Z,8.35
2023-03-05T17:27:26.638Z,8.73
2023-03-05T17:29:54.977Z,9.55
2023-03-05T17:32:22.944Z,9.95
2023-03-05T17:34:54.310Z,10.38
2023-03-05T17:37:22.273Z,11.15
2023-03-05T17:39:50.659Z,10.30
2023-03-05T17:42:20.547Z,10.02
2023-03-05T17:44:50.330Z,10.95
2023-03-05T17:47:19.222Z,10.32
2023-03-05T17:49:47.437Z,12.70
2023-03-05T17:52:15.648Z,11.35
2023-03-05T17:54:43.426Z,10.13
2023-03-05T17:57:11.294Z,12.32
2023-03-05T17:59:39.182Z,10.95
2023-03-05T18:02:08.481Z,11.98
2023-03-05T18:04:36.844Z,12.27
2023-03-05T18:07:05.046Z,12.13
2023-03-05T18:09:34.198Z,13.38
2023-03-05T18:12:02.189Z,11.90
2023-03-05T18:14:29.996Z,12.55
2023-03-05T18:16:59.361Z,12.77
2023-03-05T18:19:28.618Z,13.60
2023-03-05T18:21:56.650Z,12.98
2023-03-05T18:24:24.535Z,13.50
2023-03-05T18:26:52.343Z,12.35
2023-03-05T18:29:20.312Z,13.45
2023-03-05T18:31:48.374Z,14.10
2023-03-05T18:34:16.549Z,12.75
2023-03-05T18:36:46.041Z,13.73
2023-03-05T18:39:16.271Z,14.25
2023-03-05T18:41:44.106Z,14.13
2023-03-05T18:44:13.327Z,13.02
2023-03-05T18:46:41.794Z,14.73
2023-03-05T18:49:10.367Z,13.05
2023-03-05T18:51:38.407Z,15.38
2023-03-05T18:54:07.652Z,14.15
2023-03-05T18:56:35.365Z,14.90
2023-03-05T18:59:03.461Z,15.02
2023-03-05T19:01:31.453Z,14.35
2023-03-05T19:03:59.368Z,13.75
2023-03-05T19:06:27.233Z,15.55
2023-03-05T19:08:58.635Z,15.85
2023-03-05T19:11:27.785Z,15.57
2023-03-05T19:13:57.009Z,14.10
2023-03-05T19:16:26.857Z,14.27
2023-03-05T19:19:03.989Z,13.93
2023-03-05T19:21:32.520Z,14.32
2023-03-05T19:24:00.602Z,12.60
2023-03-05T19:26:29.810Z,14.40
2023-03-05T19:28:57.931Z,14.50
2023-03-05T19:31:25.856Z,14.57
2023-03-05T19:33:55.427Z,15.13
2023-03-05T19:36:23.793Z,13.85
2023-03-05T19:38:51.619Z,14.80
2023-03-05T19:41:21.715Z,13.85
2023-03-05T19:43:51.074Z,14.52
2023-03-05T19:46:19.165Z,13.68
2023-03-05T19:48:47.235Z,16.65
2023-03-05T19:51:17.249Z,15.10
2023-03-05T19:53:45.343Z,16.10
2023-03-05T19:56:15.828Z,14.13
2023-03-05T19:58:45.441Z,13.70
2023-03-05T20:01:17.047Z,15.82
2023-03-05T20:03:46.124Z,13.88
2023-03-05T20:06:14.648Z,15.32
2023-03-05T20:08:43.164Z,14.25
2023-03-05T20:11:12.740Z,14.77
2023-03-05T20:13:41.372Z,13.85
2023-03-05T20:16:16.955Z,14.70
2023-03-05T20:18:44.910Z,19.20
2023-03-05T20:21:21.461Z,18.40
2023-03-05T20:23:49.816Z,16.55
2023-03-05T20:26:18.451Z,15.93
2023-03-05T20:28:47.056Z,14.77
2023-03-05T20:31:20.143Z,15.73
2023-03-05T20:33:47.976Z,14.73
2023-03-05T20:36:15.668Z,15.10
2023-03-05T20:38:45.686Z,13.90
2023-03-05T20:41:15.522Z,14.73
2023-03-05T20:43:45.683Z,14.02
2023-03-05T20:46:20.232Z,13.98
2023-03-05T20:48:49.609Z,13.88
2023-03-05T20:51:22.566Z,13.32
2023-03-05T20:53:50.730Z,12.93
2023-03-05T20:56:18.563Z,13.80
2023-03-05T20:58:46.294Z,15.75
2023-03-05T21:01:14.167Z,13.63
2023-03-05T21:03:43.415Z,13.35
2023-03-05T21:06:11.185Z,12.40
2023-03-05T21:08:39.003Z,11.43
2023-03-05T21:11:08.831Z,10.63
2023-03-05T21:13:36.811Z,12.05
2023-03-05T21:16:07.866Z,12.00
2023-03-05T21:18:36.465Z,11.73
2023-03-05T21:21:06.008Z,12.23
2023-03-05T21:23:39.831Z,12.02
2023-03-05T21:26:08.068Z,12.15
2023-03-05T21:28:36.116Z,13.30
2023-03-05T21:31:08.208Z,12.45
2023-03-05T21:33:37.037Z,12.45
2023-03-05T21:36:07.666Z,12.07
2023-03-05T21:38:36.439Z,13.75
2023-03-05T21:41:05.329Z,13.35
2023-03-05T21:43:34.115Z,11.68
2023-03-05T21:46:03.301Z,14.35
2023-03-05T21:48:33.692Z,13.60
2023-03-05T21:51:01.565Z,13.25
2023-03-05T21:53:36.339Z,13.75
2023-03-05T21:56:12.781Z,12.57
2023-03-05T21:58:40.471Z,12.48
2023-03-05T22:01:08.588Z,12.38
2023-03-05T22:03:36.655Z,12.55
2023-03-05T22:06:04.868Z,13.00
2023-03-05T22:08:37.176Z,12.82
2023-03-05T22:11:09.443Z,11.68
2023-03-05T22:13:43.367Z,13.43
2023-03-05T22:16:12.290Z,13.25
2023-03-05T22:18:40.173Z,11.05
2023-03-05T22:21:18.080Z,13.00
2023-03-05T22:23:48.091Z,11.75
2023-03-05T22:26:15.962Z,11.98
2023-03-05T22:28:43.807Z,13.15
2023-03-05T22:31:11.944Z,11.95
2023-03-05T22:33:39.720Z,12.32
2023-03-05T22:36:12.216Z,11.68
2023-03-05T22:38:40.029Z,11.40
2023-03-05T22:41:24.178Z,11.48
2023-03-05T22:43:53.586Z,12.10
2023-03-05T22:46:23.586Z,12.15
2023-03-05T22:48:51.718Z,11.15
2023-03-05T22:51:20.519Z,11.48
2023-03-05T22:53:48.367Z,11.25
2023-03-05T22:56:18.278Z,12.05
2023-03-05T22:58:48.200Z,11.98
2023-03-05T23:01:17.934Z,12.55
2023-03-05T23:03:47.076Z,12.48
2023-03-05T23:06:15.060Z,12.30
2023-03-05T23:08:42.759Z,12.45
2023-03-05T23:11:12.303Z,11.75
2023-03-05T23:13:40.934Z,12.35
2023-03-05T23:16:10.653Z,11.75
2023-03-05T23:18:38.830Z,11.73
2023-03-05T23:21:07.045Z,11.48
2023-03-05T23:23:34.950Z,11.15
2023-03-05T23:26:03.047Z,10.18
2023-03-05T23:28:32.246Z,10.48
2023-03-05T23:31:00.321Z,10.77
2023-03-05T23:33:29.831Z,10.98
2023-03-05T23:35:59.257Z,10.40
2023-03-05T23:38:28.868Z,10.13
2023-03-05T23:41:01.198Z,10.95
2023-03-05T23:43:29.774Z,11.38
2023-03-05T23:45:58.155Z,10.77
2023-03-05T23:48:27.370Z,10.95
2023-03-05T23:50:57.117Z,10.20
2023-03-05T23:53:32.822Z,9.93
2023-03-05T23:56:01.179Z,11.65
2023-03-05T23:58:29.319Z,10.45
